Wind From: 10-12-2017 19:04 Until: 11-12-2017 16:00 warning for: Wind Level: Orange info button

Power and phone distribution networks may be disrupted for relatively long periods., Roofs and chimneys can be damaged. , Tree branches may break. , Vehicles can be deported. , Traffic may be disrupted, particularly on secondary roads in forest areas. Limit your trips. , Limit your speed in highway driving, especially if you drive a vehicle or hitch sensitive to wind. , Do not go for walks in forests or along the coast., In town, be vigilant against possible falling objects., Do not work on roofs and do not touch any electrical line fallen on the ground., Store or secure sensitive objects to wind or likely to be damaged., Always install power generators outside buildings. 


Meteo18 Weather Cam more information Meteo18 Weather Cam


Thunder radar more information blitzortung!


Rain radar more information rain snow radar


Visit our other weather sites:

Template documentation
and downloads

And another site



Weather Underground History page Text

Daily Summary for July 23, 2016 Units:  Metric    English   Both
« Previous Day
Next Day »
Daily Weekly Monthly Yearly Custom
  High: Low: Average:
Temperature: 28.7 °C 17.4 °C 22.8 °C
Dew Point: 17.3 °C 13.0 °C 14.8 °C
Humidity: 87 % 41 % 63 %
Wind Speed: 9.7 km/h 0.0 km/h 1.5 km/h
Wind Gust: 17.7 km/h - -
Wind:- - East
Pressure: 1020.2 hPa 1016.8 hPa -
Precipitation: 0.0 mm    
Historical Graphs
 
 
Tabular Data for July 23, 2016
Time Temperature Dew Point Pressure Wind Wind Speed Wind Gust Humidity Rainfall Rate (Hourly)
00:02 19.4 °C 16.8 °C 1016.8 hPa Calm     85 % 0.0 mm
00:12 19.3 °C 16.7 °C 1016.8 hPa Calm     85 % 0.0 mm
00:17 19.2 °C 16.8 °C 1017.2 hPa Calm     86 % 0.0 mm
00:22 19.2 °C 16.8 °C 1017.2 hPa Calm     86 % 0.0 mm
00:27 19.1 °C 16.7 °C 1017.2 hPa Calm     86 % 0.0 mm
00:32 19.1 °C 16.7 °C 1017.2 hPa Calm     86 % 0.0 mm
00:42 19.2 °C 16.8 °C 1017.2 hPa Calm     86 % 0.0 mm
00:47 19.2 °C 17.0 °C 1017.2 hPa Calm     87 % 0.0 mm
00:52 19.2 °C 17.0 °C 1017.2 hPa Calm     87 % 0.0 mm
01:02 19.2 °C 17.0 °C 1017.2 hPa Calm     87 % 0.0 mm
01:07 19.2 °C 17.0 °C 1017.2 hPa Calm     87 % 0.0 mm
01:12 19.2 °C 16.4 °C 1017.2 hPa Calm     84 % 0.0 mm
01:17 19.6 °C 16.1 °C 1017.2 hPa Calm     80 % 0.0 mm
01:22 19.9 °C 15.7 °C 1017.2 hPa East 6.4 km/h   77 % 0.0 mm
01:32 20.3 °C 15.3 °C 1017.2 hPa Calm   6.4 km/h 73 % 0.0 mm
01:42 20.3 °C 14.6 °C 1017.2 hPa ENE 3.2 km/h 6.4 km/h 70 % 0.0 mm
01:52 20.2 °C 14.6 °C 1017.2 hPa ENE 1.6 km/h 8.0 km/h 70 % 0.0 mm
01:57 20.1 °C 14.5 °C 1017.2 hPa Calm   8.0 km/h 70 % 0.0 mm
02:02 20.0 °C 14.4 °C 1017.2 hPa Calm   8.0 km/h 70 % 0.0 mm
02:12 19.7 °C 14.3 °C 1017.2 hPa NE 1.6 km/h 9.7 km/h 71 % 0.0 mm
02:17 19.6 °C 14.4 °C 1017.2 hPa Calm   9.7 km/h 72 % 0.0 mm
02:22 19.6 °C 14.6 °C 1017.2 hPa Calm   9.7 km/h 73 % 0.0 mm
02:32 19.4 °C 14.4 °C 1017.2 hPa Calm   4.8 km/h 73 % 0.0 mm
02:42 19.3 °C 14.5 °C 1017.2 hPa NE 1.6 km/h 4.8 km/h 74 % 0.0 mm
02:52 19.1 °C 14.6 °C 1016.8 hPa NE 1.6 km/h 4.8 km/h 75 % 0.0 mm
03:02 19.0 °C 14.7 °C 1016.8 hPa Calm   6.4 km/h 76 % 0.0 mm
03:12 18.8 °C 14.7 °C 1017.2 hPa ENE 3.2 km/h 6.4 km/h 77 % 0.0 mm
03:17 18.8 °C 14.7 °C 1017.2 hPa ENE 1.6 km/h 6.4 km/h 77 % 0.0 mm
03:22 18.7 °C 14.8 °C 1017.2 hPa Calm   6.4 km/h 78 % 0.0 mm
03:32 18.5 °C 14.8 °C 1017.2 hPa Calm   4.8 km/h 79 % 0.0 mm
03:42 18.4 °C 14.9 °C 1017.2 hPa Calm   4.8 km/h 80 % 0.0 mm
03:52 18.4 °C 14.9 °C 1017.2 hPa ENE 3.2 km/h 3.2 km/h 80 % 0.0 mm
04:02 18.4 °C 15.1 °C 1017.2 hPa ENE 1.6 km/h 3.2 km/h 81 % 0.0 mm
04:12 18.4 °C 15.1 °C 1017.2 hPa Calm   3.2 km/h 81 % 0.0 mm
04:17 18.4 °C 15.3 °C 1017.2 hPa Calm   6.4 km/h 82 % 0.0 mm
04:22 18.5 °C 15.4 °C 1017.2 hPa Calm   6.4 km/h 82 % 0.0 mm
04:32 18.6 °C 15.5 °C 1017.5 hPa Calm   6.4 km/h 82 % 0.0 mm
04:37 18.6 °C 15.5 °C 1017.5 hPa Calm   4.8 km/h 82 % 0.0 mm
04:47 18.6 °C 15.5 °C 1017.5 hPa Calm   6.4 km/h 82 % 0.0 mm
04:52 18.6 °C 15.5 °C 1017.5 hPa Calm   6.4 km/h 82 % 0.0 mm
05:02 18.5 °C 15.4 °C 1017.5 hPa Calm   6.4 km/h 82 % 0.0 mm
05:12 18.4 °C 15.3 °C 1017.5 hPa Calm   3.2 km/h 82 % 0.0 mm
05:22 18.3 °C 15.2 °C 1017.5 hPa Calm   3.2 km/h 82 % 0.0 mm
05:27 18.3 °C 15.2 °C 1017.2 hPa ENE 1.6 km/h 6.4 km/h 82 % 0.0 mm
05:32 18.3 °C 15.2 °C 1017.2 hPa NNE 4.8 km/h 6.4 km/h 82 % 0.0 mm
05:42 18.3 °C 15.4 °C 1017.2 hPa Calm   4.8 km/h 83 % 0.0 mm
05:47 18.3 °C 15.4 °C 1017.2 hPa East 4.8 km/h 6.4 km/h 83 % 0.0 mm
05:52 18.2 °C 15.3 °C 1017.2 hPa NE 1.6 km/h 6.4 km/h 83 % 0.0 mm
06:02 18.2 °C 15.3 °C 1017.2 hPa Calm   4.8 km/h 83 % 0.0 mm
06:12 18.1 °C 15.2 °C 1017.2 hPa Calm   4.8 km/h 83 % 0.0 mm
06:18 18.1 °C 15.2 °C 1017.2 hPa ENE 1.6 km/h 8.0 km/h 83 % 0.0 mm
06:27 18.1 °C 15.2 °C 1017.2 hPa East 1.6 km/h 8.0 km/h 83 % 0.0 mm
06:32 18.0 °C 15.1 °C 1017.2 hPa Calm   8.0 km/h 83 % 0.0 mm
06:42 17.9 °C 15.2 °C 1017.2 hPa ENE 1.6 km/h 4.8 km/h 84 % 0.0 mm
06:52 17.9 °C 15.2 °C 1017.2 hPa NNE 3.2 km/h 4.8 km/h 84 % 0.0 mm
06:57 17.8 °C 15.1 °C 1017.5 hPa East 1.6 km/h 4.8 km/h 84 % 0.0 mm
07:12 17.7 °C 15.0 °C 1017.5 hPa Calm   4.8 km/h 84 % 0.0 mm
07:17 17.6 °C 14.9 °C 1017.5 hPa Calm   3.2 km/h 84 % 0.0 mm
07:22 17.6 °C 14.9 °C 1017.5 hPa Calm   3.2 km/h 84 % 0.0 mm
07:27 17.5 °C 14.9 °C 1017.5 hPa Calm   1.6 km/h 85 % 0.0 mm
07:32 17.4 °C 14.9 °C 1017.5 hPa Calm   1.6 km/h 85 % 0.0 mm
07:42 17.4 °C 14.9 °C 1017.8 hPa Calm     85 % 0.0 mm
07:47 17.5 °C 15.1 °C 1017.8 hPa Calm     86 % 0.0 mm
07:52 17.6 °C 15.0 °C 1017.8 hPa Calm     85 % 0.0 mm
08:02 17.9 °C 15.2 °C 1017.8 hPa Calm   1.6 km/h 84 % 0.0 mm
08:12 18.3 °C 15.2 °C 1018.2 hPa Calm   1.6 km/h 82 % 0.0 mm
08:22 18.4 °C 15.1 °C 1018.2 hPa Calm   3.2 km/h 81 % 0.0 mm
08:32 18.7 °C 15.4 °C 1018.2 hPa Calm   6.4 km/h 81 % 0.0 mm
08:37 18.9 °C 15.4 °C 1018.5 hPa NE 1.6 km/h 4.8 km/h 80 % 0.0 mm
08:42 19.1 °C 15.4 °C 1018.5 hPa NE 3.2 km/h 4.8 km/h 79 % 0.0 mm
08:52 19.1 °C 15.2 °C 1018.5 hPa Calm   6.4 km/h 78 % 0.0 mm
08:57 18.9 °C 15.2 °C 1018.5 hPa ENE 1.6 km/h 6.4 km/h 79 % 0.0 mm
09:02 18.9 °C 15.2 °C 1018.5 hPa East 1.6 km/h 6.4 km/h 79 % 0.0 mm
09:07 19.0 °C 15.3 °C 1018.8 hPa Calm   4.8 km/h 79 % 0.0 mm
09:12 19.1 °C 15.4 °C 1018.8 hPa East 3.2 km/h 6.4 km/h 79 % 0.0 mm
09:17 19.2 °C 15.3 °C 1018.8 hPa ESE 1.6 km/h 6.4 km/h 78 % 0.0 mm
09:22 19.3 °C 15.4 °C 1018.8 hPa ESE 1.6 km/h 6.4 km/h 78 % 0.0 mm
09:27 19.4 °C 15.5 °C 1018.8 hPa ENE 3.2 km/h 8.0 km/h 78 % 0.0 mm
09:32 19.6 °C 15.7 °C 1018.8 hPa Calm   8.0 km/h 78 % 0.0 mm
09:37 19.8 °C 15.4 °C 1018.8 hPa Calm   8.0 km/h 76 % 0.0 mm
09:42 20.1 °C 15.5 °C 1018.8 hPa ENE 3.2 km/h 6.4 km/h 75 % 0.0 mm
09:47 20.2 °C 15.6 °C 1018.8 hPa Calm   8.0 km/h 75 % 0.0 mm
09:52 20.7 °C 15.9 °C 1018.8 hPa ENE 1.6 km/h 8.0 km/h 74 % 0.0 mm
09:57 21.1 °C 15.9 °C 1018.8 hPa ENE 1.6 km/h 8.0 km/h 72 % 0.0 mm
10:02 21.5 °C 16.0 °C 1018.8 hPa Calm   8.0 km/h 71 % 0.0 mm
10:07 21.8 °C 16.3 °C 1018.8 hPa ENE 3.2 km/h 6.4 km/h 71 % 0.0 mm
10:12 22.1 °C 16.6 °C 1018.8 hPa ENE 3.2 km/h 4.8 km/h 71 % 0.0 mm
10:17 22.3 °C 16.1 °C 1018.8 hPa Calm   8.0 km/h 68 % 0.0 mm
10:22 22.8 °C 16.8 °C 1018.8 hPa East 1.6 km/h 8.0 km/h 69 % 0.0 mm
10:27 23.2 °C 16.5 °C 1018.8 hPa ENE 1.6 km/h 8.0 km/h 66 % 0.0 mm
10:32 23.6 °C 16.9 °C 1018.8 hPa Calm   8.0 km/h 66 % 0.0 mm
10:37 24.0 °C 17.3 °C 1018.8 hPa ENE 1.6 km/h 6.4 km/h 66 % 0.0 mm
10:42 24.2 °C 16.7 °C 1018.8 hPa ESE 1.6 km/h 6.4 km/h 63 % 0.0 mm
10:47 24.4 °C 16.9 °C 1019.2 hPa ENE 6.4 km/h 6.4 km/h 63 % 0.0 mm
10:52 24.0 °C 16.5 °C 1019.2 hPa Calm   8.0 km/h 63 % 0.0 mm
10:57 24.2 °C 16.5 °C 1019.2 hPa ENE 4.8 km/h 8.0 km/h 62 % 0.0 mm
11:02 24.4 °C 16.1 °C 1019.2 hPa Calm   8.0 km/h 60 % 0.0 mm
11:07 24.3 °C 16.3 °C 1019.2 hPa Calm   8.0 km/h 61 % 0.0 mm
11:12 24.4 °C 15.9 °C 1019.2 hPa North 4.8 km/h 8.0 km/h 59 % 0.0 mm
11:17 23.9 °C 15.9 °C 1019.2 hPa SE 1.6 km/h 8.0 km/h 61 % 0.0 mm
11:22 23.6 °C 15.9 °C 1019.2 hPa Calm   8.0 km/h 62 % 0.0 mm
11:32 24.6 °C 16.1 °C 1019.2 hPa SE 1.6 km/h 8.0 km/h 59 % 0.0 mm
11:37 24.8 °C 16.0 °C 1019.2 hPa ENE 1.6 km/h 6.4 km/h 58 % 0.0 mm
11:42 24.6 °C 14.7 °C 1019.5 hPa ENE 6.4 km/h 8.0 km/h 54 % 0.0 mm
11:47 24.1 °C 14.5 °C 1019.5 hPa NNE 1.6 km/h 9.7 km/h 55 % 0.0 mm
11:52 23.8 °C 14.8 °C 1019.5 hPa ENE 1.6 km/h 9.7 km/h 57 % 0.0 mm
11:57 23.9 °C 14.0 °C 1019.5 hPa Calm   9.7 km/h 54 % 0.0 mm
12:02 24.9 °C 14.7 °C 1019.5 hPa Calm   9.7 km/h 53 % 0.0 mm
12:07 25.6 °C 15.6 °C 1019.5 hPa ESE 3.2 km/h 8.0 km/h 54 % 0.0 mm
12:12 25.8 °C 14.9 °C 1019.5 hPa ENE 3.2 km/h 8.0 km/h 51 % 0.0 mm
12:17 25.9 °C 15.3 °C 1019.5 hPa ENE 8.0 km/h 8.0 km/h 52 % 0.0 mm
12:22 25.9 °C 14.7 °C 1019.2 hPa NNE 3.2 km/h 11.3 km/h 50 % 0.0 mm
12:27 26.0 °C 15.1 °C 1019.2 hPa NE 6.4 km/h 11.3 km/h 51 % 0.0 mm
12:32 26.2 °C 15.3 °C 1019.2 hPa ENE 1.6 km/h 12.9 km/h 51 % 0.0 mm
12:37 26.3 °C 15.7 °C 1019.2 hPa ENE 4.8 km/h 11.3 km/h 52 % 0.0 mm
12:42 26.8 °C 15.2 °C 1019.2 hPa Calm   11.3 km/h 49 % 0.0 mm
12:47 27.1 °C 14.8 °C 1019.2 hPa SSE 1.6 km/h 11.3 km/h 47 % 0.0 mm
12:52 26.9 °C 14.3 °C 1019.2 hPa NNE 6.4 km/h 9.7 km/h 46 % 0.0 mm
12:57 26.5 °C 14.6 °C 1019.2 hPa ENE 3.2 km/h 17.7 km/h 48 % 0.0 mm
13:02 26.8 °C 14.5 °C 1019.2 hPa ENE 3.2 km/h 17.7 km/h 47 % 0.0 mm
13:12 27.2 °C 15.2 °C 1019.2 hPa ESE 3.2 km/h 12.9 km/h 48 % 0.0 mm
13:17 26.9 °C 14.3 °C 1019.2 hPa East 3.2 km/h 12.9 km/h 46 % 0.0 mm
13:22 26.8 °C 14.5 °C 1019.2 hPa ENE 3.2 km/h 12.9 km/h 47 % 0.0 mm
13:32 27.4 °C 14.8 °C 1019.2 hPa East 8.0 km/h 12.9 km/h 46 % 0.0 mm
13:37 27.1 °C 14.1 °C 1019.2 hPa Calm   12.9 km/h 45 % 0.0 mm
13:42 27.2 °C 15.2 °C 1019.2 hPa ENE 3.2 km/h 12.9 km/h 48 % 0.0 mm
13:47 27.2 °C 14.2 °C 1019.2 hPa East 9.7 km/h 12.9 km/h 45 % 0.0 mm
13:52 27.1 °C 15.5 °C 1019.2 hPa East 1.6 km/h 12.9 km/h 49 % 0.0 mm
13:57 27.6 °C 14.9 °C 1019.2 hPa ENE 1.6 km/h 12.9 km/h 46 % 0.0 mm
14:02 27.6 °C 14.6 °C 1019.2 hPa NE 1.6 km/h 12.9 km/h 45 % 0.0 mm
14:12 27.8 °C 14.8 °C 1019.2 hPa ENE 1.6 km/h 8.0 km/h 45 % 0.0 mm
14:17 28.2 °C 15.1 °C 1019.2 hPa ENE 3.2 km/h 8.0 km/h 45 % 0.0 mm
14:22 28.2 °C 14.8 °C 1019.2 hPa Calm   12.9 km/h 44 % 0.0 mm
14:27 27.8 °C 14.8 °C 1019.2 hPa NE 8.0 km/h 14.5 km/h 45 % 0.0 mm
14:32 27.9 °C 14.9 °C 1019.2 hPa East 1.6 km/h 14.5 km/h 45 % 0.0 mm
14:37 28.0 °C 14.6 °C 1019.2 hPa ENE 1.6 km/h 14.5 km/h 44 % 0.0 mm
14:42 27.9 °C 15.2 °C 1019.2 hPa South 3.2 km/h 11.3 km/h 46 % 0.0 mm
14:47 28.1 °C 15.0 °C 1019.5 hPa ENE 1.6 km/h 11.3 km/h 45 % 0.0 mm
14:52 27.8 °C 14.8 °C 1019.2 hPa South 3.2 km/h 11.3 km/h 45 % 0.0 mm
14:57 28.4 °C 15.0 °C 1019.2 hPa East 1.6 km/h 9.7 km/h 44 % 0.0 mm
15:02 28.5 °C 14.7 °C 1019.2 hPa Calm   9.7 km/h 43 % 0.0 mm
15:07 28.1 °C 14.0 °C 1019.2 hPa ESE 1.6 km/h 9.7 km/h 42 % 0.0 mm
15:12 27.5 °C 14.5 °C 1019.2 hPa SSW 1.6 km/h 16.1 km/h 45 % 0.0 mm
15:17 27.9 °C 14.9 °C 1019.2 hPa ESE 1.6 km/h 16.1 km/h 45 % 0.0 mm
15:22 27.9 °C 14.5 °C 1019.2 hPa NE 4.8 km/h 14.5 km/h 44 % 0.0 mm
15:27 27.7 °C 14.3 °C 1019.2 hPa Calm   12.9 km/h 44 % 0.0 mm
15:32 28.2 °C 14.8 °C 1019.2 hPa East 1.6 km/h 12.9 km/h 44 % 0.0 mm
15:37 28.3 °C 14.9 °C 1019.2 hPa Calm   12.9 km/h 44 % 0.0 mm
15:47 28.1 °C 14.7 °C 1019.2 hPa NE 3.2 km/h 14.5 km/h 44 % 0.0 mm
15:52 27.3 °C 14.3 °C 1019.2 hPa SE 1.6 km/h 14.5 km/h 45 % 0.0 mm
15:57 26.8 °C 13.9 °C 1019.2 hPa ENE 3.2 km/h 14.5 km/h 45 % 0.0 mm
16:02 26.7 °C 14.1 °C 1018.8 hPa ESE 1.6 km/h 14.5 km/h 46 % 0.0 mm
16:07 27.6 °C 14.9 °C 1019.2 hPa East 3.2 km/h 11.3 km/h 46 % 0.0 mm
16:12 27.6 °C 14.2 °C 1019.2 hPa ESE 1.6 km/h 8.0 km/h 44 % 0.0 mm
16:17 26.9 °C 15.0 °C 1019.2 hPa NNE 6.4 km/h 16.1 km/h 48 % 0.0 mm
16:22 27.6 °C 14.9 °C 1019.2 hPa ESE 3.2 km/h 17.7 km/h 46 % 0.0 mm
16:27 28.2 °C 14.4 °C 1018.8 hPa ENE 1.6 km/h 17.7 km/h 43 % 0.0 mm
16:32 28.4 °C 14.2 °C 1018.8 hPa ENE 1.6 km/h 17.7 km/h 42 % 0.0 mm
16:37 28.5 °C 15.4 °C 1018.8 hPa ENE 1.6 km/h 11.3 km/h 45 % 0.0 mm
16:42 28.3 °C 14.5 °C 1018.8 hPa NE 3.2 km/h 9.7 km/h 43 % 0.0 mm
16:47 28.7 °C 14.1 °C 1018.8 hPa NE 3.2 km/h 9.7 km/h 41 % 0.0 mm
16:52 28.5 °C 14.3 °C 1018.8 hPa ENE 3.2 km/h 11.3 km/h 42 % 0.0 mm
16:57 28.0 °C 13.9 °C 1018.8 hPa ESE 1.6 km/h 11.3 km/h 42 % 0.0 mm
17:02 27.3 °C 14.0 °C 1018.8 hPa East 3.2 km/h 11.3 km/h 44 % 0.0 mm
17:12 28.1 °C 14.0 °C 1018.8 hPa NNW 4.8 km/h 11.3 km/h 42 % 0.0 mm
17:17 27.3 °C 13.6 °C 1018.8 hPa ENE 4.8 km/h 11.3 km/h 43 % 0.0 mm
17:22 26.9 °C 14.0 °C 1018.8 hPa East 3.2 km/h 12.9 km/h 45 % 0.0 mm
17:32 27.7 °C 14.3 °C 1018.8 hPa SE 6.4 km/h 12.9 km/h 44 % 0.0 mm
17:37 27.5 °C 13.8 °C 1018.8 hPa ENE 3.2 km/h 12.9 km/h 43 % 0.0 mm
17:42 27.7 °C 14.3 °C 1018.8 hPa SW 3.2 km/h 11.3 km/h 44 % 0.0 mm
17:47 27.2 °C 13.5 °C 1018.8 hPa ENE 3.2 km/h 12.9 km/h 43 % 0.0 mm
17:52 26.7 °C 13.8 °C 1018.8 hPa NE 4.8 km/h 12.9 km/h 45 % 0.0 mm
17:57 26.3 °C 13.8 °C 1018.5 hPa Calm   12.9 km/h 46 % 0.0 mm
18:02 26.9 °C 14.0 °C 1018.5 hPa East 1.6 km/h 12.9 km/h 45 % 0.0 mm
18:07 27.6 °C 14.2 °C 1018.5 hPa East 3.2 km/h 6.4 km/h 44 % 0.0 mm
18:12 27.1 °C 13.8 °C 1018.5 hPa ESE 3.2 km/h 12.9 km/h 44 % 0.0 mm
18:17 26.3 °C 13.8 °C 1018.5 hPa ENE 1.6 km/h 12.9 km/h 46 % 0.0 mm
18:22 25.8 °C 14.0 °C 1018.5 hPa ENE 1.6 km/h 12.9 km/h 48 % 0.0 mm
18:27 25.7 °C 13.9 °C 1018.5 hPa Calm   12.9 km/h 48 % 0.0 mm
18:32 25.9 °C 13.7 °C 1018.5 hPa NE 3.2 km/h 11.3 km/h 47 % 0.0 mm
18:37 26.5 °C 13.9 °C 1018.5 hPa ENE 6.4 km/h 11.3 km/h 46 % 0.0 mm
18:42 26.4 °C 13.2 °C 1018.5 hPa NE 1.6 km/h 9.7 km/h 44 % 0.0 mm
18:47 26.1 °C 13.2 °C 1018.5 hPa Calm   9.7 km/h 45 % 0.0 mm
18:52 25.7 °C 13.5 °C 1018.5 hPa Calm   9.7 km/h 47 % 0.0 mm
18:57 25.7 °C 13.5 °C 1018.8 hPa NE 3.2 km/h 9.7 km/h 47 % 0.0 mm
19:07 25.3 °C 13.2 °C 1018.5 hPa Calm   9.7 km/h 47 % 0.0 mm
19:12 25.2 °C 13.1 °C 1018.5 hPa ENE 1.6 km/h 8.0 km/h 47 % 0.0 mm
19:22 25.3 °C 13.2 °C 1018.8 hPa ENE 4.8 km/h 6.4 km/h 47 % 0.0 mm
19:27 25.2 °C 13.4 °C 1018.8 hPa Calm   9.7 km/h 48 % 0.0 mm
19:32 25.1 °C 13.3 °C 1018.5 hPa Calm   9.7 km/h 48 % 0.0 mm
19:37 25.2 °C 13.7 °C 1018.5 hPa Calm   9.7 km/h 49 % 0.0 mm
19:42 25.2 °C 13.1 °C 1018.5 hPa ESE 3.2 km/h 4.8 km/h 47 % 0.0 mm
19:47 25.3 °C 13.2 °C 1018.5 hPa Calm   9.7 km/h 47 % 0.0 mm
19:52 25.2 °C 13.1 °C 1018.5 hPa NE 6.4 km/h 9.7 km/h 47 % 0.0 mm
20:02 25.1 °C 13.0 °C 1018.8 hPa Calm   9.7 km/h 47 % 0.0 mm
20:07 24.9 °C 13.5 °C 1018.8 hPa Calm   9.7 km/h 49 % 0.0 mm
20:12 24.8 °C 13.0 °C 1018.8 hPa ENE 1.6 km/h 9.7 km/h 48 % 0.0 mm
20:17 24.8 °C 13.4 °C 1018.8 hPa Calm   8.0 km/h 49 % 0.0 mm
20:22 24.7 °C 13.9 °C 1018.8 hPa Calm   8.0 km/h 51 % 0.0 mm
20:32 24.4 °C 13.6 °C 1018.8 hPa Calm   6.4 km/h 51 % 0.0 mm
20:37 24.3 °C 13.8 °C 1018.8 hPa Calm   4.8 km/h 52 % 0.0 mm
20:47 24.1 °C 13.9 °C 1018.8 hPa Calm   4.8 km/h 53 % 0.0 mm
20:52 23.9 °C 14.0 °C 1018.8 hPa Calm   4.8 km/h 54 % 0.0 mm
20:57 23.8 °C 13.9 °C 1018.8 hPa Calm     54 % 0.0 mm
21:02 23.6 °C 14.0 °C 1019.2 hPa Calm     55 % 0.0 mm
21:07 23.4 °C 13.8 °C 1019.2 hPa Calm     55 % 0.0 mm
21:12 23.2 °C 14.2 °C 1019.2 hPa Calm     57 % 0.0 mm
21:17 22.8 °C 14.1 °C 1019.2 hPa Calm     58 % 0.0 mm
21:22 22.4 °C 14.3 °C 1019.2 hPa Calm     60 % 0.0 mm
21:32 21.7 °C 14.1 °C 1019.2 hPa Calm     62 % 0.0 mm
21:42 21.2 °C 14.1 °C 1019.5 hPa Calm     64 % 0.0 mm
21:47 21.0 °C 14.2 °C 1019.5 hPa Calm     65 % 0.0 mm
21:52 20.8 °C 14.0 °C 1019.5 hPa Calm     65 % 0.0 mm
21:57 20.8 °C 14.0 °C 1019.5 hPa Calm     65 % 0.0 mm
22:02 20.8 °C 14.0 °C 1019.5 hPa Calm     65 % 0.0 mm
22:12 20.7 °C 14.1 °C 1019.9 hPa Calm     66 % 0.0 mm
22:17 20.4 °C 14.1 °C 1019.9 hPa Calm     67 % 0.0 mm
22:22 20.1 °C 14.0 °C 1019.9 hPa Calm     68 % 0.0 mm
22:27 19.9 °C 14.0 °C 1019.9 hPa Calm     69 % 0.0 mm
22:32 19.8 °C 14.2 °C 1019.9 hPa Calm     70 % 0.0 mm
22:37 19.6 °C 14.2 °C 1019.9 hPa Calm     71 % 0.0 mm
22:42 19.6 °C 14.6 °C 1019.9 hPa Calm     73 % 0.0 mm
22:52 19.3 °C 14.1 °C 1019.9 hPa Calm     72 % 0.0 mm
22:57 19.1 °C 14.1 °C 1020.2 hPa Calm     73 % 0.0 mm
23:02 19.0 °C 14.3 °C 1020.2 hPa Calm     74 % 0.0 mm
23:12 19.1 °C 14.1 °C 1020.2 hPa Calm     73 % 0.0 mm
23:17 19.1 °C 14.1 °C 1020.2 hPa Calm     73 % 0.0 mm
23:22 19.1 °C 14.1 °C 1020.2 hPa Calm     73 % 0.0 mm
23:32 18.6 °C 13.9 °C 1020.2 hPa Calm     74 % 0.0 mm
23:37 18.5 °C 14.0 °C 1019.9 hPa Calm     75 % 0.0 mm
23:42 18.3 °C 13.8 °C 1019.9 hPa Calm     75 % 0.0 mm
23:47 18.3 °C 14.0 °C 1020.2 hPa Calm     76 % 0.0 mm
23:52 18.3 °C 14.0 °C 1019.9 hPa Calm     76 % 0.0 mm
23:57 18.3 °C 14.0 °C 1019.9 hPa Calm     76 % 0.0 mm
Meteo18
Compliments of Weather Underground - 4 mb

Script developed by  Jim McMurry - jmcmurry@mwt.net Adapted for the template by  Wim van der Kuil - Leuven-Template.eu

You find our weather info also at:

European Weather Network

Weather Underground

Equipment we use:

Weather-station
Davis Vue

Weather-program
Meteohub

Weather-server
Raspberry PI 2 B+

Provider
1 and 1

Davis Vue

Meteohub

Raspberry PI 2 B+

1 and 1